createdAt,value
2019-03-11T00:00:02.391Z,968.43
2019-03-11T00:01:12.316Z,968.49
2019-03-11T00:02:22.232Z,968.51
2019-03-11T00:03:32.148Z,968.49
2019-03-11T00:04:42.066Z,968.56
2019-03-11T00:05:52.130Z,968.55
2019-03-11T00:07:02.065Z,968.58
2019-03-11T00:08:11.984Z,968.59
2019-03-11T00:09:21.902Z,968.57
2019-03-11T00:10:31.811Z,968.6
2019-03-11T00:11:41.597Z,968.61
2019-03-11T00:12:51.505Z,968.62
2019-03-11T00:14:01.414Z,968.67
2019-03-11T00:15:11.329Z,968.62
2019-03-11T00:16:21.241Z,968.65
2019-03-11T00:17:31.007Z,968.67
2019-03-11T00:18:40.924Z,968.72
2019-03-11T00:19:50.839Z,968.7
2019-03-11T00:21:00.788Z,968.74
2019-03-11T00:22:10.708Z,968.74
2019-03-11T00:23:20.713Z,968.74
2019-03-11T00:24:30.623Z,968.76
2019-03-11T00:25:40.540Z,968.77
2019-03-11T00:26:50.451Z,968.78
2019-03-11T00:28:00.372Z,968.81
2019-03-11T00:29:10.349Z,968.78
2019-03-11T00:30:20.264Z,968.8
2019-03-11T00:31:30.175Z,968.81
2019-03-11T00:32:40.087Z,968.82
2019-03-11T00:33:50.068Z,968.85
2019-03-11T00:35:00.027Z,968.87
2019-03-11T00:36:09.941Z,968.86
2019-03-11T00:37:19.871Z,968.88
2019-03-11T00:38:29.781Z,968.92
2019-03-11T00:39:39.700Z,968.95
2019-03-11T00:40:49.713Z,968.92
2019-03-11T00:41:59.624Z,968.94
2019-03-11T00:43:09.533Z,968.9
2019-03-11T00:44:19.449Z,968.96
2019-03-11T00:45:29.366Z,968.98
2019-03-11T00:46:39.291Z,969.01
2019-03-11T00:47:49.208Z,969.04
2019-03-11T00:49:09.537Z,969.06
2019-03-11T00:50:19.447Z,969
2019-03-11T00:51:29.354Z,968.98
2019-03-11T00:52:39.401Z,969.01
2019-03-11T00:53:49.837Z,969.01
2019-03-11T00:54:59.750Z,969.04
2019-03-11T00:56:09.747Z,969.05
2019-03-11T00:57:19.405Z,969.06
2019-03-11T00:58:29.417Z,969.08
2019-03-11T00:59:39.355Z,969.07
2019-03-11T01:00:49.267Z,969.08
2019-03-11T01:01:59.197Z,969.05
2019-03-11T01:03:08.856Z,969.05
2019-03-11T01:04:18.865Z,969.01
2019-03-11T01:05:28.777Z,969
2019-03-11T01:06:38.690Z,969.03
2019-03-11T01:07:48.600Z,968.97
2019-03-11T01:08:58.526Z,969.03
2019-03-11T01:10:08.538Z,969.05
2019-03-11T01:11:18.471Z,969
2019-03-11T01:12:28.388Z,969.01
2019-03-11T01:13:38.297Z,969.03
2019-03-11T01:14:47.975Z,969.05
2019-03-11T01:15:57.938Z,968.99
2019-03-11T01:17:07.862Z,969.07
2019-03-11T01:18:17.771Z,969.1
2019-03-11T01:19:27.711Z,969.09
2019-03-11T01:20:37.627Z,969.09
2019-03-11T01:21:47.589Z,969.13
2019-03-11T01:22:57.506Z,969.13
2019-03-11T01:24:07.419Z,969.17
2019-03-11T01:25:17.363Z,969.15
2019-03-11T01:26:27.284Z,969.18
2019-03-11T01:27:37.296Z,969.15
2019-03-11T01:28:47.213Z,969.21
2019-03-11T01:29:57.153Z,969.13
2019-03-11T01:31:07.069Z,969.17
2019-03-11T01:32:16.983Z,969.25
2019-03-11T01:33:26.952Z,969.23
2019-03-11T01:34:36.931Z,969.2
2019-03-11T01:35:46.842Z,969.31
2019-03-11T01:36:56.764Z,969.28
2019-03-11T01:38:06.686Z,969.31
2019-03-11T01:39:16.703Z,969.27
2019-03-11T01:40:26.624Z,969.29
2019-03-11T01:41:36.538Z,969.31
2019-03-11T01:42:46.458Z,969.33
2019-03-11T01:43:59.242Z,969.37
2019-03-11T01:45:09.203Z,969.36
2019-03-11T01:46:19.142Z,969.4
2019-03-11T01:47:29.053Z,969.45
2019-03-11T01:48:39.022Z,969.41
2019-03-11T01:49:48.930Z,969.44
2019-03-11T01:50:58.900Z,969.44
2019-03-11T01:52:08.808Z,969.44
2019-03-11T01:53:18.748Z,969.45
2019-03-11T01:54:28.660Z,969.43
2019-03-11T01:55:38.576Z,969.45
2019-03-11T01:56:48.584Z,969.55
2019-03-11T01:57:58.499Z,969.57
2019-03-11T01:59:08.414Z,969.59
2019-03-11T02:00:18.325Z,969.56
2019-03-11T02:01:28.241Z,969.53
2019-03-11T02:02:38.200Z,969.55
2019-03-11T02:03:48.117Z,969.54
2019-03-11T02:04:58.040Z,969.59
2019-03-11T02:06:07.952Z,969.59
2019-03-11T02:07:17.937Z,969.58
2019-03-11T02:08:27.962Z,969.55
2019-03-11T02:09:37.868Z,969.58
2019-03-11T02:10:47.792Z,969.55
2019-03-11T02:11:57.705Z,969.54
2019-03-11T02:13:07.616Z,969.56
2019-03-11T02:14:17.624Z,969.55
2019-03-11T02:15:27.541Z,969.54
2019-03-11T02:16:37.448Z,969.53
2019-03-11T02:17:47.366Z,969.57
2019-03-11T02:18:57.274Z,969.57
2019-03-11T02:20:07.285Z,969.62
2019-03-11T02:21:17.195Z,969.66
2019-03-11T02:22:27.121Z,969.62
2019-03-11T02:23:37.092Z,969.62
2019-03-11T02:24:47.040Z,969.61
2019-03-11T02:25:57.001Z,969.6
2019-03-11T02:27:06.920Z,969.65
2019-03-11T02:28:16.828Z,969.66
2019-03-11T02:29:26.756Z,969.65
2019-03-11T02:30:36.673Z,969.65
2019-03-11T02:31:46.650Z,969.65
2019-03-11T02:32:56.611Z,969.67
2019-03-11T02:34:06.543Z,969.64
2019-03-11T02:35:16.475Z,969.69
2019-03-11T02:36:26.409Z,969.7
2019-03-11T02:37:36.392Z,969.69
2019-03-11T02:38:46.307Z,969.71
2019-03-11T02:39:56.251Z,969.73
2019-03-11T02:41:06.280Z,969.75
2019-03-11T02:42:16.202Z,969.81
2019-03-11T02:43:26.228Z,969.74
2019-03-11T02:44:36.280Z,969.8
2019-03-11T02:45:46.218Z,969.8
2019-03-11T02:46:56.169Z,969.8
2019-03-11T02:48:06.103Z,969.75
2019-03-11T02:49:16.135Z,969.82
2019-03-11T02:50:26.120Z,969.81
2019-03-11T02:51:36.051Z,969.79
2019-03-11T02:52:46.007Z,969.8
2019-03-11T02:53:55.936Z,969.84
2019-03-11T02:55:05.979Z,969.81
2019-03-11T02:56:16.125Z,969.8
2019-03-11T02:57:26.051Z,969.83
2019-03-11T02:58:36.010Z,969.86
2019-03-11T02:59:45.942Z,969.84
2019-03-11T03:00:55.984Z,969.88
2019-03-11T03:02:05.919Z,969.91
2019-03-11T03:03:15.587Z,969.95
2019-03-11T03:04:25.275Z,969.9
2019-03-11T03:05:34.966Z,969.93
2019-03-11T03:06:44.980Z,969.95
2019-03-11T03:07:54.909Z,969.94
2019-03-11T03:09:04.850Z,969.97
2019-03-11T03:10:14.785Z,969.97
2019-03-11T03:11:24.736Z,969.96
2019-03-11T03:12:34.722Z,969.93
2019-03-11T03:13:44.729Z,969.9
2019-03-11T03:14:54.651Z,969.96
2019-03-11T03:16:04.611Z,969.97
2019-03-11T03:17:14.530Z,969.98
2019-03-11T03:18:24.559Z,969.98
2019-03-11T03:19:34.482Z,970.01
2019-03-11T03:20:44.526Z,970.01
2019-03-11T03:21:54.564Z,970.03
2019-03-11T03:23:04.518Z,970.08
2019-03-11T03:24:14.289Z,970.06
2019-03-11T03:25:33.456Z,970.05
2019-03-11T03:26:44.359Z,970.05
2019-03-11T03:27:54.439Z,970.07
2019-03-11T03:29:05.401Z,970.06
2019-03-11T03:30:15.377Z,970.08
2019-03-11T03:31:25.416Z,970.14
2019-03-11T03:32:35.471Z,970.07
2019-03-11T03:33:45.496Z,970.07
2019-03-11T03:34:55.550Z,970.11
2019-03-11T03:36:06.055Z,970.14
2019-03-11T03:37:15.989Z,970.18
2019-03-11T03:38:30.729Z,970.15
2019-03-11T03:39:41.122Z,970.18
2019-03-11T03:40:51.120Z,970.19
2019-03-11T03:42:01.055Z,970.19
2019-03-11T03:43:13.860Z,970.21
2019-03-11T03:44:23.583Z,970.21
2019-03-11T03:45:33.281Z,970.24
2019-03-11T03:46:43.250Z,970.23
2019-03-11T03:47:53.184Z,970.25
2019-03-11T03:49:03.145Z,970.24
2019-03-11T03:50:13.140Z,970.25
2019-03-11T03:51:23.068Z,970.25
2019-03-11T03:52:33.046Z,970.26
2019-03-11T03:53:42.966Z,970.26
2019-03-11T03:54:52.908Z,970.26
2019-03-11T03:56:02.827Z,970.28
2019-03-11T03:57:12.512Z,970.32
2019-03-11T03:58:22.498Z,970.33
2019-03-11T03:59:32.452Z,970.34
2019-03-11T04:00:42.417Z,970.34
2019-03-11T04:01:52.087Z,970.38
2019-03-11T04:03:02.021Z,970.33
2019-03-11T04:04:11.761Z,970.35
2019-03-11T04:05:21.694Z,970.41
2019-03-11T04:06:31.641Z,970.41
2019-03-11T04:07:41.559Z,970.43
2019-03-11T04:08:51.496Z,970.46
2019-03-11T04:10:01.532Z,970.48
2019-03-11T04:11:11.490Z,970.48
2019-03-11T04:12:21.425Z,970.52
2019-03-11T04:13:31.343Z,970.52
2019-03-11T04:14:41.292Z,970.56
2019-03-11T04:15:51.237Z,970.58
2019-03-11T04:17:01.168Z,970.57
2019-03-11T04:18:10.907Z,970.6
2019-03-11T04:19:20.834Z,970.57
2019-03-11T04:20:34.449Z,970.61
2019-03-11T04:21:44.261Z,970.64
2019-03-11T04:22:54.178Z,970.64
2019-03-11T04:24:04.237Z,970.67
2019-03-11T04:25:14.167Z,970.72
2019-03-11T04:26:24.109Z,970.66
2019-03-11T04:27:34.129Z,970.71
2019-03-11T04:28:44.072Z,970.74
2019-03-11T04:29:53.983Z,970.72
2019-03-11T04:31:03.899Z,970.71
2019-03-11T04:32:13.825Z,970.77
2019-03-11T04:33:23.908Z,970.76
2019-03-11T04:34:35.928Z,970.81
2019-03-11T04:35:46.217Z,970.86
2019-03-11T04:36:56.141Z,970.87
2019-03-11T04:38:06.072Z,970.84
2019-03-11T04:39:16.037Z,970.8
2019-03-11T04:40:25.948Z,970.84
2019-03-11T04:41:35.856Z,970.89
2019-03-11T04:42:45.769Z,970.86
2019-03-11T04:43:55.718Z,970.88
2019-03-11T04:45:07.451Z,970.91
2019-03-11T04:46:17.365Z,970.92
2019-03-11T04:47:27.295Z,970.95
2019-03-11T04:48:37.202Z,971.01
2019-03-11T04:49:47.110Z,971.01
2019-03-11T04:50:57.118Z,971.03
2019-03-11T04:52:06.778Z,971.11
2019-03-11T04:53:16.700Z,971.09
2019-03-11T04:54:26.606Z,971.09
2019-03-11T04:55:36.509Z,971.14
2019-03-11T04:56:46.515Z,971.11
2019-03-11T04:57:56.193Z,971.1
2019-03-11T04:59:06.162Z,971.12
2019-03-11T05:00:16.069Z,971.07
2019-03-11T05:01:25.981Z,971.12
2019-03-11T05:02:35.894Z,971.16
2019-03-11T05:03:46.244Z,971.15
2019-03-11T05:04:56.341Z,971.25
2019-03-11T05:06:06.252Z,971.29
2019-03-11T05:07:16.166Z,971.33
2019-03-11T05:08:26.121Z,971.32
2019-03-11T05:09:36.026Z,971.34
2019-03-11T05:10:45.931Z,971.34
2019-03-11T05:11:55.847Z,971.33
2019-03-11T05:13:05.763Z,971.38
2019-03-11T05:14:15.769Z,971.41
2019-03-11T05:15:25.677Z,971.47
2019-03-11T05:16:35.591Z,971.53
2019-03-11T05:17:48.119Z,971.52
2019-03-11T05:18:58.430Z,971.53
2019-03-11T05:20:08.456Z,971.53
2019-03-11T05:21:18.368Z,971.54
2019-03-11T05:22:28.271Z,971.51
2019-03-11T05:23:38.180Z,971.48
2019-03-11T05:24:48.102Z,971.57
2019-03-11T05:25:58.059Z,971.54
2019-03-11T05:27:07.969Z,971.63
2019-03-11T05:28:17.888Z,971.68
2019-03-11T05:29:27.798Z,971.7
2019-03-11T05:30:37.455Z,971.67
2019-03-11T05:31:47.472Z,971.65
2019-03-11T05:32:57.380Z,971.65
2019-03-11T05:34:07.361Z,971.65
2019-03-11T05:35:19.042Z,971.69
2019-03-11T05:36:28.963Z,971.7
2019-03-11T05:37:39.030Z,971.75
2019-03-11T05:38:49.006Z,971.79
2019-03-11T05:39:58.911Z,971.74
2019-03-11T05:41:09.037Z,971.77
2019-03-11T05:42:19.159Z,971.72
2019-03-11T05:43:28.916Z,971.76
2019-03-11T05:44:38.830Z,971.78
2019-03-11T05:45:48.735Z,971.73
2019-03-11T05:46:58.663Z,971.72
2019-03-11T05:48:08.577Z,971.79
2019-03-11T05:49:18.595Z,971.74
2019-03-11T05:50:28.505Z,971.72
2019-03-11T05:51:38.409Z,971.72
2019-03-11T05:52:48.316Z,971.75
2019-03-11T05:53:58.248Z,971.78
2019-03-11T05:55:08.240Z,971.82
2019-03-11T05:56:18.168Z,971.85
2019-03-11T05:57:28.136Z,971.95
2019-03-11T05:58:38.051Z,971.96
2019-03-11T05:59:48.037Z,971.89
2019-03-11T06:00:57.997Z,971.92
2019-03-11T06:02:07.902Z,971.91
2019-03-11T06:03:17.816Z,971.93
2019-03-11T06:04:27.734Z,971.94
2019-03-11T06:05:37.640Z,971.94
2019-03-11T06:06:47.570Z,971.98
2019-03-11T06:07:57.245Z,972.01
2019-03-11T06:09:07.156Z,972.01
2019-03-11T06:10:17.065Z,972.07
2019-03-11T06:11:26.972Z,972.11
2019-03-11T06:12:37.036Z,972.11
2019-03-11T06:13:46.953Z,972.15
2019-03-11T06:14:56.865Z,972.18
2019-03-11T06:16:06.527Z,972.22
2019-03-11T06:17:16.182Z,972.15
2019-03-11T06:18:26.192Z,972.24
2019-03-11T06:19:36.099Z,972.2
2019-03-11T06:20:46.033Z,972.2
2019-03-11T06:21:55.949Z,972.2
2019-03-11T06:23:05.912Z,972.19
2019-03-11T06:24:15.970Z,972.24
2019-03-11T06:25:25.954Z,972.24
2019-03-11T06:26:35.942Z,972.27
2019-03-11T06:27:45.933Z,972.28
2019-03-11T06:28:55.844Z,972.26
2019-03-11T06:30:08.004Z,972.28
2019-03-11T06:31:18.068Z,972.31
2019-03-11T06:32:27.981Z,972.32
2019-03-11T06:33:37.645Z,972.3
2019-03-11T06:34:47.549Z,972.3
2019-03-11T06:35:57.513Z,972.36
2019-03-11T06:37:07.426Z,972.39
2019-03-11T06:38:17.358Z,972.39
2019-03-11T06:39:27.263Z,972.37
2019-03-11T06:40:37.183Z,972.36
2019-03-11T06:41:48.967Z,972.44
2019-03-11T06:42:58.883Z,972.43
2019-03-11T06:44:08.297Z,972.47
2019-03-11T06:45:18.214Z,972.47
2019-03-11T06:46:28.120Z,972.47
2019-03-11T06:47:38.105Z,972.5
2019-03-11T06:48:47.778Z,972.46
2019-03-11T06:49:57.696Z,972.52
2019-03-11T06:51:07.607Z,972.52
2019-03-11T06:52:17.014Z,972.54
2019-03-11T06:53:27.089Z,972.56
2019-03-11T06:54:36.997Z,972.54
2019-03-11T06:55:46.905Z,972.6
2019-03-11T06:56:56.850Z,972.61
2019-03-11T06:58:06.767Z,972.62
2019-03-11T06:59:16.772Z,972.63
2019-03-11T07:00:26.756Z,972.69
2019-03-11T07:01:36.674Z,972.63
2019-03-11T07:02:46.332Z,972.68
2019-03-11T07:03:56.244Z,972.75
2019-03-11T07:05:06.264Z,972.73
2019-03-11T07:06:27.672Z,972.72
2019-03-11T07:07:37.589Z,972.7
2019-03-11T07:08:47.497Z,972.7
2019-03-11T07:09:57.150Z,972.73
2019-03-11T07:11:07.148Z,972.69
2019-03-11T07:12:17.089Z,972.76
2019-03-11T07:13:27.002Z,972.72
2019-03-11T07:14:36.916Z,972.75
2019-03-11T07:15:46.840Z,972.78
2019-03-11T07:16:57.101Z,972.78
2019-03-11T07:18:07.197Z,972.73
2019-03-11T07:19:17.110Z,972.81
2019-03-11T07:20:27.025Z,972.8
2019-03-11T07:21:36.949Z,972.78
2019-03-11T07:22:46.966Z,972.84
2019-03-11T07:23:56.874Z,972.77
2019-03-11T07:25:06.786Z,972.79
2019-03-11T07:26:16.703Z,972.76
2019-03-11T07:27:27.712Z,972.85
2019-03-11T07:28:37.914Z,972.81
2019-03-11T07:29:47.582Z,972.83
2019-03-11T07:30:57.491Z,972.83
2019-03-11T07:32:07.399Z,972.78
2019-03-11T07:33:17.316Z,972.87
2019-03-11T07:34:27.335Z,972.91
2019-03-11T07:35:37.241Z,972.84
2019-03-11T07:36:47.154Z,972.93
2019-03-11T07:37:57.065Z,973.03
2019-03-11T07:39:06.546Z,972.93
2019-03-11T07:40:28.298Z,972.98
2019-03-11T07:41:38.906Z,973.03
2019-03-11T07:42:48.829Z,972.99
2019-03-11T07:43:58.740Z,973.09
2019-03-11T07:45:08.664Z,973.07
2019-03-11T07:46:18.682Z,973.08
2019-03-11T07:47:28.607Z,973.06
2019-03-11T07:48:38.522Z,973.02
2019-03-11T07:49:48.431Z,973.06
2019-03-11T07:50:58.397Z,973.01
2019-03-11T07:52:08.306Z,973.05
2019-03-11T07:53:17.990Z,973.03
2019-03-11T07:54:35.405Z,972.99
2019-03-11T07:55:45.644Z,973.06
2019-03-11T07:56:55.672Z,973.07
2019-03-11T07:58:05.608Z,973.11
2019-03-11T07:59:15.516Z,973.11
2019-03-11T08:00:25.434Z,973.14
2019-03-11T08:01:35.175Z,973.09
2019-03-11T08:02:45.138Z,973.06
2019-03-11T08:03:55.166Z,973.12
2019-03-11T08:05:05.077Z,973.07
2019-03-11T08:06:18.722Z,973.11
2019-03-11T08:07:28.847Z,973.12
2019-03-11T08:08:38.937Z,973.05
2019-03-11T08:09:48.852Z,973.07
2019-03-11T08:10:58.763Z,973.03
2019-03-11T08:12:08.671Z,973.05
2019-03-11T08:13:18.578Z,973.03
2019-03-11T08:14:28.588Z,973.04
2019-03-11T08:15:38.530Z,973.1
2019-03-11T08:16:48.202Z,973.08
2019-03-11T08:17:58.117Z,973.09
2019-03-11T08:19:08.028Z,973.15
2019-03-11T08:20:17.983Z,973.14
2019-03-11T08:21:27.908Z,973.18
2019-03-11T08:22:37.815Z,973.24
2019-03-11T08:23:47.728Z,973.32
2019-03-11T08:24:57.647Z,973.36
2019-03-11T08:26:07.733Z,973.4
2019-03-11T08:27:17.649Z,973.43
2019-03-11T08:28:27.557Z,973.44
2019-03-11T08:29:37.474Z,973.38
2019-03-11T08:30:47.389Z,973.47
2019-03-11T08:31:57.308Z,973.48
2019-03-11T08:33:07.226Z,973.53
2019-03-11T08:34:17.140Z,973.52
2019-03-11T08:35:27.059Z,973.51
2019-03-11T08:36:36.983Z,973.56
2019-03-11T08:37:46.906Z,973.52
2019-03-11T08:38:56.583Z,973.55
2019-03-11T08:40:06.516Z,973.5
2019-03-11T08:41:16.434Z,973.51
2019-03-11T08:42:26.356Z,973.55
2019-03-11T08:43:36.377Z,973.55
2019-03-11T08:44:46.059Z,973.54
2019-03-11T08:45:56.016Z,973.55
2019-03-11T08:47:05.930Z,973.5
2019-03-11T08:48:15.862Z,973.55
2019-03-11T08:49:25.771Z,973.54
2019-03-11T08:50:35.676Z,973.54
2019-03-11T08:51:45.623Z,973.6
2019-03-11T08:52:55.292Z,973.63
2019-03-11T08:54:05.211Z,973.58
2019-03-11T08:55:15.223Z,973.59
2019-03-11T08:56:25.145Z,973.59
2019-03-11T08:57:35.058Z,973.64
2019-03-11T08:58:47.707Z,973.67
2019-03-11T08:59:57.620Z,973.68
2019-03-11T09:01:07.559Z,973.69
2019-03-11T09:02:17.237Z,973.72
2019-03-11T09:03:27.149Z,973.83
2019-03-11T09:04:37.065Z,973.85
2019-03-11T09:05:46.976Z,973.87
2019-03-11T09:06:56.938Z,973.93
2019-03-11T09:08:06.857Z,973.95
2019-03-11T09:09:16.771Z,974
2019-03-11T09:10:27.233Z,974.09
2019-03-11T09:11:37.149Z,974.06
2019-03-11T09:12:47.221Z,974.11
2019-03-11T09:13:57.143Z,974.16
2019-03-11T09:15:06.812Z,974.17
2019-03-11T09:16:16.734Z,974.1
2019-03-11T09:17:26.653Z,974.11
2019-03-11T09:18:36.575Z,974.11
2019-03-11T09:19:46.500Z,974.09
2019-03-11T09:20:56.410Z,974.09
2019-03-11T09:22:07.830Z,974.1
2019-03-11T09:23:17.749Z,974.03
2019-03-11T09:24:27.776Z,974.07
2019-03-11T09:25:37.713Z,974.09
2019-03-11T09:26:47.625Z,974.11
2019-03-11T09:27:57.543Z,974.1
2019-03-11T09:29:07.467Z,974.08
2019-03-11T09:30:17.440Z,974.1
2019-03-11T09:31:27.362Z,974.07
2019-03-11T09:32:37.286Z,974.1
2019-03-11T09:33:47.212Z,974.12
2019-03-11T09:34:57.124Z,974.09
2019-03-11T09:36:07.052Z,974.12
2019-03-11T09:37:16.963Z,974.07
2019-03-11T09:38:26.877Z,974.17
2019-03-11T09:39:36.557Z,974.16
2019-03-11T09:40:47.101Z,974.18
2019-03-11T09:41:57.026Z,974.17
2019-03-11T09:43:06.973Z,974.23
2019-03-11T09:44:16.888Z,974.26
2019-03-11T09:45:26.806Z,974.22
2019-03-11T09:46:36.727Z,974.2
2019-03-11T09:47:46.753Z,974.27
2019-03-11T09:48:57.565Z,974.3
2019-03-11T09:50:07.487Z,974.29
2019-03-11T09:51:17.411Z,974.27
2019-03-11T09:52:27.339Z,974.31
2019-03-11T09:53:37.355Z,974.31
2019-03-11T09:54:47.275Z,974.3
2019-03-11T09:55:57.191Z,974.29
2019-03-11T09:57:10.194Z,974.25
2019-03-11T09:58:20.113Z,974.27
2019-03-11T09:59:30.043Z,974.23
2019-03-11T10:00:39.984Z,974.27
2019-03-11T10:01:49.909Z,974.21
2019-03-11T10:02:59.832Z,974.21
2019-03-11T10:04:09.756Z,974.18
2019-03-11T10:05:19.827Z,974.13
2019-03-11T10:06:29.818Z,974.06
2019-03-11T10:07:39.852Z,974.03
2019-03-11T10:08:49.993Z,974.06
2019-03-11T10:09:59.934Z,974.07
2019-03-11T10:11:09.937Z,974.03
2019-03-11T10:12:19.606Z,974.09
2019-03-11T10:13:29.528Z,974.09
2019-03-11T10:14:39.452Z,974.11
2019-03-11T10:15:49.376Z,974.16
2019-03-11T10:16:59.397Z,974.19
2019-03-11T10:18:09.324Z,974.18
2019-03-11T10:19:19.247Z,974.25
2019-03-11T10:20:29.167Z,974.26
2019-03-11T10:21:39.089Z,974.26
2019-03-11T10:22:49.010Z,974.24
2019-03-11T10:23:59.351Z,974.27
2019-03-11T10:25:09.427Z,974.28
2019-03-11T10:26:19.354Z,974.28
2019-03-11T10:27:29.271Z,974.27
2019-03-11T10:28:39.188Z,974.34
2019-03-11T10:29:49.119Z,974.29
2019-03-11T10:30:59.035Z,974.29
2019-03-11T10:32:08.707Z,974.31
2019-03-11T10:33:18.631Z,974.32
2019-03-11T10:34:28.673Z,974.27
2019-03-11T10:35:38.591Z,974.25
2019-03-11T10:36:48.514Z,974.24
2019-03-11T10:37:58.471Z,974.24
2019-03-11T10:39:08.388Z,974.26
2019-03-11T10:40:18.412Z,974.27
2019-03-11T10:41:28.340Z,974.25
2019-03-11T10:42:38.303Z,974.24
2019-03-11T10:43:48.222Z,974.29
2019-03-11T10:44:58.168Z,974.28
2019-03-11T10:46:08.238Z,974.3
2019-03-11T10:47:18.172Z,974.27
2019-03-11T10:48:36.538Z,974.27
2019-03-11T10:49:47.015Z,974.27
2019-03-11T10:50:56.996Z,974.29
2019-03-11T10:52:07.608Z,974.23
2019-03-11T10:53:17.571Z,974.2
2019-03-11T10:54:27.516Z,974.21
2019-03-11T10:55:37.456Z,974.24
2019-03-11T10:56:47.394Z,974.24
2019-03-11T10:57:57.472Z,974.24
2019-03-11T10:59:07.400Z,974.2
2019-03-11T11:00:17.324Z,974.2
2019-03-11T11:01:27.256Z,974.22
2019-03-11T11:02:37.182Z,974.22
2019-03-11T11:03:47.102Z,974.24
2019-03-11T11:04:57.034Z,974.2
2019-03-11T11:06:06.966Z,974.2
2019-03-11T11:07:17.832Z,974.18
2019-03-11T11:08:27.759Z,974.22
2019-03-11T11:09:37.678Z,974.19
2019-03-11T11:10:47.599Z,974.18
2019-03-11T11:11:57.525Z,974.22
2019-03-11T11:13:07.454Z,974.24
2019-03-11T11:14:17.379Z,974.24
2019-03-11T11:15:27.463Z,974.23
2019-03-11T11:16:37.399Z,974.28
2019-03-11T11:17:49.316Z,974.29
2019-03-11T11:18:59.242Z,974.35
2019-03-11T11:20:09.165Z,974.36
2019-03-11T11:21:19.093Z,974.45
2019-03-11T11:22:29.021Z,974.49
2019-03-11T11:23:38.950Z,974.52
2019-03-11T11:24:48.898Z,974.54
2019-03-11T11:25:58.822Z,974.54
2019-03-11T11:27:08.750Z,974.53
2019-03-11T11:28:18.675Z,974.63
2019-03-11T11:29:28.600Z,974.62
2019-03-11T11:30:38.528Z,974.64
2019-03-11T11:31:48.461Z,974.68
2019-03-11T11:32:58.390Z,974.72
2019-03-11T11:34:08.321Z,974.77
2019-03-11T11:35:18.245Z,974.79
2019-03-11T11:36:28.182Z,974.78
2019-03-11T11:37:38.110Z,974.8
2019-03-11T11:38:48.139Z,974.77
2019-03-11T11:39:58.081Z,974.78
2019-03-11T11:41:08.026Z,974.81
2019-03-11T11:42:19.484Z,974.83
2019-03-11T11:43:29.412Z,974.83
2019-03-11T11:44:39.341Z,974.81
2019-03-11T11:45:49.266Z,974.85
2019-03-11T11:46:59.197Z,974.83
2019-03-11T11:48:09.121Z,974.8
2019-03-11T11:49:19.046Z,974.78
2019-03-11T11:50:28.975Z,974.8
2019-03-11T11:51:38.908Z,974.8
2019-03-11T11:52:48.836Z,974.79
2019-03-11T11:53:58.777Z,974.79
2019-03-11T11:55:08.730Z,974.8
2019-03-11T11:56:18.463Z,974.8
2019-03-11T11:57:28.393Z,974.76
2019-03-11T11:58:40.674Z,974.81
2019-03-11T11:59:54.196Z,974.83
2019-03-11T12:01:04.339Z,974.85
2019-03-11T12:02:14.367Z,974.88
2019-03-11T12:03:24.315Z,974.86
2019-03-11T12:04:34.244Z,974.82
2019-03-11T12:05:44.179Z,974.81
2019-03-11T12:06:54.112Z,974.82
2019-03-11T12:08:04.137Z,974.85
2019-03-11T12:09:14.171Z,974.81
2019-03-11T12:10:24.107Z,974.78
2019-03-11T12:11:34.034Z,974.8
2019-03-11T12:12:43.959Z,974.84
2019-03-11T12:13:53.930Z,974.76
2019-03-11T12:15:03.885Z,974.85
2019-03-11T12:16:13.810Z,974.87
2019-03-11T12:17:23.741Z,974.88
2019-03-11T12:18:33.678Z,974.92
2019-03-11T12:19:43.704Z,975.01
2019-03-11T12:20:53.640Z,974.98
2019-03-11T12:22:03.565Z,974.9
2019-03-11T12:23:13.490Z,974.93
2019-03-11T12:24:23.423Z,975.02
2019-03-11T12:25:33.416Z,975.04
2019-03-11T12:26:43.420Z,974.93
2019-03-11T12:27:54.648Z,974.91
2019-03-11T12:29:06.034Z,975.01
2019-03-11T12:30:15.957Z,975.07
2019-03-11T12:31:26.088Z,975.04
2019-03-11T12:32:36.014Z,975.03
2019-03-11T12:33:45.956Z,975.01
2019-03-11T12:34:55.890Z,975.08
2019-03-11T12:36:05.813Z,975.13
2019-03-11T12:37:15.809Z,975.13
2019-03-11T12:38:25.738Z,975.09
2019-03-11T12:39:36.582Z,975.05
2019-03-11T12:40:46.511Z,975.14
2019-03-11T12:41:56.434Z,975.1
2019-03-11T12:43:06.414Z,975.07
2019-03-11T12:44:16.340Z,975.13
2019-03-11T12:45:26.279Z,975.08
2019-03-11T12:46:36.206Z,975.1
2019-03-11T12:47:46.145Z,975.11
2019-03-11T12:48:55.678Z,975.1
2019-03-11T12:50:05.616Z,975.17
2019-03-11T12:51:17.653Z,975.14
2019-03-11T12:52:27.624Z,975.11
2019-03-11T12:53:37.557Z,975.21
2019-03-11T12:54:47.584Z,975.14
2019-03-11T12:55:57.511Z,975.17
2019-03-11T12:57:07.456Z,975.25
2019-03-11T12:58:17.390Z,975.24
2019-03-11T12:59:27.322Z,975.29
2019-03-11T13:00:43.565Z,975.21
2019-03-11T13:01:53.495Z,975.19
2019-03-11T13:03:03.423Z,975.23
2019-03-11T13:04:13.353Z,975.2
2019-03-11T13:05:23.281Z,975.14
2019-03-11T13:06:33.355Z,975.22
2019-03-11T13:07:43.297Z,975.29
2019-03-11T13:08:53.233Z,975.39
2019-03-11T13:10:03.168Z,975.28
2019-03-11T13:11:13.102Z,975.3
2019-03-11T13:12:23.300Z,975.35
2019-03-11T13:13:33.227Z,975.35
2019-03-11T13:14:43.158Z,975.36
2019-03-11T13:15:53.080Z,975.33
2019-03-11T13:17:03.041Z,975.38
2019-03-11T13:18:13.074Z,975.42
2019-03-11T13:19:23.006Z,975.34
2019-03-11T13:20:32.936Z,975.45
2019-03-11T13:21:42.614Z,975.4
2019-03-11T13:22:52.545Z,975.4
2019-03-11T13:24:02.588Z,975.43
2019-03-11T13:25:12.532Z,975.35
2019-03-11T13:26:22.454Z,975.38
2019-03-11T13:27:32.408Z,975.39
2019-03-11T13:28:42.333Z,975.43
2019-03-11T13:29:52.319Z,975.47
2019-03-11T13:31:02.248Z,975.5
2019-03-11T13:32:12.172Z,975.51
2019-03-11T13:33:22.100Z,975.4
2019-03-11T13:34:32.048Z,975.55
2019-03-11T13:35:41.826Z,975.53
2019-03-11T13:36:51.772Z,975.41
2019-03-11T13:38:01.695Z,975.41
2019-03-11T13:39:11.633Z,975.57
2019-03-11T13:40:21.558Z,975.54
2019-03-11T13:41:31.481Z,975.55
2019-03-11T13:42:41.407Z,975.63
2019-03-11T13:43:51.333Z,975.58
2019-03-11T13:45:01.260Z,975.62
2019-03-11T13:46:11.185Z,975.56
2019-03-11T13:47:21.164Z,975.72
2019-03-11T13:48:31.121Z,975.59
2019-03-11T13:49:41.064Z,975.55
2019-03-11T13:50:50.748Z,975.54
2019-03-11T13:52:00.681Z,975.54
2019-03-11T13:53:10.396Z,975.5
2019-03-11T13:54:20.316Z,975.52
2019-03-11T13:55:30.236Z,975.74
2019-03-11T13:56:40.164Z,975.74
2019-03-11T13:57:50.086Z,975.78
2019-03-11T13:59:00.105Z,975.52
2019-03-11T14:00:10.053Z,975.63
2019-03-11T14:01:21.342Z,975.58
2019-03-11T14:02:31.428Z,975.81
2019-03-11T14:03:41.357Z,975.67
2019-03-11T14:04:51.358Z,975.52
2019-03-11T14:06:01.299Z,975.53
2019-03-11T14:07:11.227Z,975.61
2019-03-11T14:08:21.152Z,975.59
2019-03-11T14:09:31.077Z,975.71
2019-03-11T14:10:41.098Z,975.75
2019-03-11T14:11:51.020Z,975.79
2019-03-11T14:13:00.956Z,975.76
2019-03-11T14:14:10.883Z,975.76
2019-03-11T14:15:20.825Z,975.79
2019-03-11T14:16:30.807Z,975.73
2019-03-11T14:17:40.731Z,975.81
2019-03-11T14:18:50.673Z,975.89
2019-03-11T14:20:00.599Z,975.83
2019-03-11T14:21:10.535Z,975.83
2019-03-11T14:22:30.337Z,975.92
2019-03-11T14:23:40.279Z,975.9
2019-03-11T14:24:50.253Z,975.95
2019-03-11T14:26:00.488Z,975.94
2019-03-11T14:27:10.412Z,975.96
2019-03-11T14:28:20.381Z,975.96
2019-03-11T14:29:30.309Z,975.99
2019-03-11T14:30:40.228Z,976.01
2019-03-11T14:31:50.155Z,976
2019-03-11T14:33:00.102Z,976.02
2019-03-11T14:34:10.091Z,976.07
2019-03-11T14:35:20.121Z,976.18
2019-03-11T14:36:30.048Z,976.08
2019-03-11T14:37:39.980Z,976.08